createdAt,value
2019-01-14T00:01:35.406Z,2.30
2019-01-14T00:04:04.526Z,2.17
2019-01-14T00:06:33.502Z,2.40
2019-01-14T00:09:02.838Z,1.90
2019-01-14T00:11:31.835Z,2.50
2019-01-14T00:14:00.897Z,2.07
2019-01-14T00:16:29.933Z,1.87
2019-01-14T00:18:58.902Z,2.67
2019-01-14T00:21:27.865Z,1.83
2019-01-14T00:23:56.856Z,1.83
2019-01-14T00:26:25.820Z,2.20
2019-01-14T00:28:54.805Z,2.43
2019-01-14T00:31:23.854Z,1.50
2019-01-14T00:33:53.198Z,2.20
2019-01-14T00:36:22.266Z,2.30
2019-01-14T00:38:51.405Z,1.80
2019-01-14T00:41:20.346Z,2.10
2019-01-14T00:43:49.323Z,1.30
2019-01-14T00:46:18.290Z,1.57
2019-01-14T00:48:47.254Z,1.20
2019-01-14T00:51:16.222Z,1.33
2019-01-14T00:53:45.223Z,1.50
2019-01-14T00:56:14.186Z,1.10
2019-01-14T00:58:43.154Z,1.03
2019-01-14T01:01:12.214Z,1.70
2019-01-14T01:03:41.178Z,1.70
2019-01-14T01:06:10.174Z,2.17
2019-01-14T01:08:39.221Z,2.33
2019-01-14T01:11:08.192Z,2.07
2019-01-14T01:13:37.186Z,2.10
2019-01-14T01:16:06.157Z,2.07
2019-01-14T01:18:35.145Z,2.10
2019-01-14T01:21:04.207Z,2.50
2019-01-14T01:23:33.198Z,1.80
2019-01-14T01:26:02.182Z,1.93
2019-01-14T01:28:31.151Z,2.13
2019-01-14T01:31:00.128Z,1.70
2019-01-14T01:33:29.097Z,1.37
2019-01-14T01:35:58.073Z,1.20
2019-01-14T01:38:27.034Z,1.30
2019-01-14T01:40:56.014Z,1.10
2019-01-14T01:43:24.984Z,1.17
2019-01-14T01:45:54.825Z,1.10
2019-01-14T01:48:23.758Z,1.40
2019-01-14T01:50:52.726Z,1.13
2019-01-14T01:53:21.707Z,1.40
2019-01-14T01:55:50.684Z,1.20
2019-01-14T01:58:19.646Z,1.00
2019-01-14T02:00:48.624Z,1.00
2019-01-14T02:03:17.579Z,1.03
2019-01-14T02:05:46.570Z,0.93
2019-01-14T02:08:15.530Z,0.90
2019-01-14T02:10:44.506Z,0.70
2019-01-14T02:13:13.482Z,1.10
2019-01-14T02:15:42.465Z,1.10
2019-01-14T02:18:11.434Z,0.97
2019-01-14T02:20:40.430Z,1.27
2019-01-14T02:25:46.108Z,0.90
2019-01-14T02:28:15.075Z,1.00
2019-01-14T02:30:44.040Z,1.93
2019-01-14T02:33:13.031Z,1.20
2019-01-14T02:35:42.010Z,1.47
2019-01-14T02:38:10.971Z,1.07
2019-01-14T02:40:39.941Z,1.37
2019-01-14T02:43:08.914Z,1.37
2019-01-14T02:45:37.883Z,1.20
2019-01-14T02:48:06.863Z,1.17
2019-01-14T02:50:35.890Z,1.40
2019-01-14T02:53:04.851Z,1.03
2019-01-14T02:55:33.818Z,0.83
2019-01-14T02:58:02.788Z,1.40
2019-01-14T03:00:31.819Z,1.00
2019-01-14T03:03:00.788Z,0.93
2019-01-14T03:05:29.762Z,0.90
2019-01-14T03:07:58.793Z,0.90
2019-01-14T03:10:27.867Z,0.90
2019-01-14T03:12:56.901Z,0.60
2019-01-14T03:15:25.862Z,0.60
2019-01-14T03:17:54.846Z,0.70
2019-01-14T03:20:23.813Z,0.70
2019-01-14T03:22:52.782Z,0.70
2019-01-14T03:25:21.754Z,0.93
2019-01-14T03:27:50.726Z,0.80
2019-01-14T03:30:19.896Z,0.53
2019-01-14T03:32:48.979Z,1.00
2019-01-14T03:35:18.010Z,0.70
2019-01-14T03:37:46.985Z,0.40
2019-01-14T03:40:16.136Z,0.60
2019-01-14T03:42:45.135Z,0.57
2019-01-14T03:45:15.274Z,0.60
2019-01-14T03:47:44.710Z,0.80
2019-01-14T03:50:14.979Z,0.40
2019-01-14T03:52:43.942Z,1.10
2019-01-14T03:55:13.114Z,0.63
2019-01-14T03:57:42.347Z,0.73
2019-01-14T04:00:15.229Z,0.70
2019-01-14T04:02:44.459Z,0.63
2019-01-14T04:05:13.494Z,1.00
2019-01-14T04:07:42.478Z,0.80
2019-01-14T04:10:12.611Z,0.87
2019-01-14T04:12:41.577Z,0.73
2019-01-14T04:15:11.827Z,0.70
2019-01-14T04:17:40.789Z,0.80
2019-01-14T04:20:13.857Z,0.90
2019-01-14T04:22:42.867Z,0.60
2019-01-14T04:25:11.903Z,0.87
2019-01-14T04:27:40.870Z,0.83
2019-01-14T04:30:11.399Z,0.80
2019-01-14T04:32:40.371Z,1.90
2019-01-14T04:35:10.011Z,0.80
2019-01-14T04:37:38.999Z,0.90
2019-01-14T04:40:09.535Z,0.90
2019-01-14T04:42:38.505Z,0.80
2019-01-14T04:45:08.850Z,1.53
2019-01-14T04:47:37.818Z,1.00
2019-01-14T04:50:08.262Z,0.93
2019-01-14T04:52:37.245Z,1.30
2019-01-14T04:55:06.483Z,1.30
2019-01-14T04:57:35.455Z,1.67
2019-01-14T05:00:05.966Z,1.23
2019-01-14T05:02:34.930Z,1.00
2019-01-14T05:05:04.867Z,1.20
2019-01-14T05:07:33.856Z,1.20
2019-01-14T05:10:03.905Z,1.20
2019-01-14T05:12:32.894Z,1.10
2019-01-14T05:15:01.857Z,1.67
2019-01-14T05:17:31.067Z,1.10
2019-01-14T05:20:00.248Z,1.03
2019-01-14T05:22:29.234Z,1.50
2019-01-14T05:24:58.244Z,1.10
2019-01-14T05:27:27.214Z,1.20
2019-01-14T05:29:56.196Z,1.40
2019-01-14T05:32:25.159Z,1.57
2019-01-14T05:34:54.139Z,1.10
2019-01-14T05:37:23.102Z,1.07
2019-01-14T05:39:52.081Z,1.00
2019-01-14T05:42:21.061Z,1.00
2019-01-14T05:44:50.077Z,1.10
2019-01-14T05:47:19.051Z,0.97
2019-01-14T05:49:48.347Z,0.80
2019-01-14T05:52:17.315Z,0.80
2019-01-14T05:54:46.269Z,0.80
2019-01-14T05:57:15.269Z,1.47
2019-01-14T05:59:44.241Z,1.00
2019-01-14T06:02:13.210Z,0.90
2019-01-14T06:04:42.187Z,0.87
2019-01-14T06:07:11.157Z,0.70
2019-01-14T06:09:40.126Z,0.67
2019-01-14T06:12:09.115Z,0.63
2019-01-14T06:14:38.127Z,0.43
2019-01-14T06:17:07.094Z,0.57
2019-01-14T06:19:37.495Z,0.73
2019-01-14T06:22:06.614Z,0.70
2019-01-14T06:24:35.588Z,0.40
2019-01-14T06:27:04.575Z,0.37
2019-01-14T06:29:33.571Z,0.40
2019-01-14T06:32:02.587Z,0.40
2019-01-14T06:34:31.600Z,0.40
2019-01-14T06:37:00.574Z,0.33
2019-01-14T06:39:29.538Z,0.40
2019-01-14T06:41:58.518Z,0.40
2019-01-14T06:44:27.490Z,0.80
2019-01-14T06:46:56.466Z,0.67
2019-01-14T06:49:25.434Z,0.70
2019-01-14T06:51:54.404Z,0.40
2019-01-14T06:54:23.381Z,0.47
2019-01-14T06:56:52.365Z,0.80
2019-01-14T06:59:21.327Z,0.70
2019-01-14T07:01:50.306Z,0.40
2019-01-14T07:04:19.270Z,0.70
2019-01-14T07:06:48.243Z,0.60
2019-01-14T07:09:17.246Z,0.63
2019-01-14T07:11:46.282Z,0.90
2019-01-14T07:14:15.258Z,0.70
2019-01-14T07:16:44.260Z,0.67
2019-01-14T07:19:13.228Z,0.60
2019-01-14T07:21:42.771Z,0.57
2019-01-14T07:24:11.774Z,0.53
2019-01-14T07:26:40.830Z,0.50
2019-01-14T07:29:09.782Z,0.50
2019-01-14T07:31:38.755Z,0.37
2019-01-14T07:34:07.745Z,0.40
2019-01-14T07:36:36.708Z,0.33
2019-01-14T07:39:06.851Z,0.40
2019-01-14T07:41:35.839Z,0.40
2019-01-14T07:44:04.878Z,0.80
2019-01-14T07:46:33.981Z,0.43
2019-01-14T07:49:02.980Z,0.60
2019-01-14T07:51:32.812Z,0.70
2019-01-14T07:54:01.883Z,0.67
2019-01-14T07:56:30.858Z,0.60
2019-01-14T07:58:59.994Z,0.70
2019-01-14T08:01:28.979Z,0.63
2019-01-14T08:03:57.953Z,0.80
2019-01-14T08:06:26.924Z,0.80
2019-01-14T08:08:55.910Z,0.33
2019-01-14T08:11:24.887Z,0.70
2019-01-14T08:13:53.866Z,0.40
2019-01-14T08:16:22.835Z,0.60
2019-01-14T08:18:51.814Z,0.50
2019-01-14T08:21:20.778Z,0.57
2019-01-14T08:23:49.966Z,0.60
2019-01-14T08:26:18.937Z,0.60
2019-01-14T08:28:47.914Z,0.40
2019-01-14T08:31:16.874Z,0.50
2019-01-14T08:33:45.859Z,0.40
2019-01-14T08:36:14.869Z,0.30
2019-01-14T08:38:43.839Z,0.30
2019-01-14T08:41:13.568Z,0.23
2019-01-14T08:43:43.021Z,0.50
2019-01-14T08:46:12.000Z,0.30
2019-01-14T08:48:40.971Z,0.80
2019-01-14T08:51:09.971Z,0.30
2019-01-14T08:53:38.944Z,0.30
2019-01-14T08:56:07.912Z,0.40
2019-01-14T08:58:36.886Z,0.37
2019-01-14T09:01:05.854Z,0.40
2019-01-14T09:03:34.870Z,0.30
2019-01-14T09:06:03.940Z,0.20
2019-01-14T09:08:32.913Z,0.20
2019-01-14T09:11:01.876Z,0.33
2019-01-14T09:13:30.880Z,0.20
2019-01-14T09:15:59.847Z,0.20
2019-01-14T09:18:28.818Z,0.50
2019-01-14T09:20:58.994Z,0.13
2019-01-14T09:23:28.335Z,0.20
2019-01-14T09:25:57.266Z,0.30
2019-01-14T09:28:26.259Z,0.20
2019-01-14T09:30:55.218Z,0.73
2019-01-14T09:33:24.182Z,0.40
2019-01-14T09:35:53.186Z,0.40
2019-01-14T09:38:22.173Z,0.50
2019-01-14T09:40:51.139Z,0.60
2019-01-14T09:43:20.115Z,0.50
2019-01-14T09:45:49.092Z,0.33
2019-01-14T09:48:18.050Z,0.90
2019-01-14T09:50:47.100Z,0.30
2019-01-14T09:53:16.144Z,0.70
2019-01-14T09:55:45.113Z,0.50
2019-01-14T09:58:14.110Z,0.40
2019-01-14T10:00:43.070Z,0.60
2019-01-14T10:03:12.045Z,0.60
2019-01-14T10:05:41.032Z,0.20
2019-01-14T10:08:10.010Z,0.47
2019-01-14T10:10:38.982Z,0.50
2019-01-14T10:13:07.951Z,0.60
2019-01-14T10:15:36.923Z,0.40
2019-01-14T10:18:06.246Z,0.30
2019-01-14T10:20:35.212Z,0.53
2019-01-14T10:23:04.180Z,0.50
2019-01-14T10:25:33.330Z,0.50
2019-01-14T10:28:02.319Z,0.67
2019-01-14T10:30:31.282Z,0.73
2019-01-14T10:33:00.246Z,0.50
2019-01-14T10:35:29.238Z,0.70
2019-01-14T10:37:58.222Z,0.60
2019-01-14T10:40:27.192Z,0.63
2019-01-14T10:42:56.174Z,0.37
2019-01-14T10:45:25.167Z,0.60
2019-01-14T10:47:54.168Z,0.50
2019-01-14T10:50:23.156Z,1.60
2019-01-14T10:52:52.118Z,0.47
2019-01-14T10:55:21.087Z,0.70
2019-01-14T10:57:50.068Z,0.60
2019-01-14T11:00:20.305Z,0.50
2019-01-14T11:02:49.339Z,0.60
2019-01-14T11:05:21.587Z,0.40
2019-01-14T11:07:50.735Z,0.50
2019-01-14T11:10:19.766Z,0.50
2019-01-14T11:12:48.797Z,0.53
2019-01-14T11:15:18.660Z,0.63
2019-01-14T11:17:47.682Z,0.50
2019-01-14T11:20:20.859Z,0.77
2019-01-14T11:22:49.818Z,0.50
2019-01-14T11:25:19.768Z,0.90
2019-01-14T11:27:48.795Z,0.67
2019-01-14T11:30:19.134Z,0.50
2019-01-14T11:32:48.179Z,0.70
2019-01-14T11:35:17.175Z,0.63
2019-01-14T11:37:46.148Z,0.50
2019-01-14T11:40:16.589Z,0.90
2019-01-14T11:42:45.561Z,1.03
2019-01-14T11:45:14.527Z,0.73
2019-01-14T11:47:43.594Z,0.63
2019-01-14T11:50:13.730Z,0.80
2019-01-14T11:52:42.722Z,0.80
2019-01-14T11:55:11.711Z,0.90
2019-01-14T11:57:40.679Z,0.70
2019-01-14T12:00:11.178Z,0.90
2019-01-14T12:02:40.176Z,0.70
2019-01-14T12:05:09.603Z,0.73
2019-01-14T12:07:38.588Z,1.13
2019-01-14T12:10:08.823Z,0.57
2019-01-14T12:12:37.795Z,1.53
2019-01-14T12:15:10.986Z,0.90
2019-01-14T12:17:39.991Z,0.60
2019-01-14T12:20:10.726Z,0.60
2019-01-14T12:22:39.692Z,0.63
2019-01-14T12:25:08.934Z,0.90
2019-01-14T12:27:37.906Z,0.70
2019-01-14T12:30:08.431Z,0.50
2019-01-14T12:32:37.390Z,0.80
2019-01-14T12:35:06.422Z,1.10
2019-01-14T12:37:35.394Z,1.43
2019-01-14T12:40:05.899Z,1.00
2019-01-14T12:42:34.930Z,0.90
2019-01-14T12:45:05.678Z,0.80
2019-01-14T12:47:34.708Z,1.03
2019-01-14T12:50:05.146Z,0.50
2019-01-14T12:52:34.114Z,0.70
2019-01-14T12:55:04.117Z,0.73
2019-01-14T12:57:33.086Z,1.10
2019-01-14T13:00:02.113Z,0.67
2019-01-14T13:02:31.469Z,1.03
2019-01-14T13:05:00.462Z,0.67
2019-01-14T13:07:29.434Z,1.10
2019-01-14T13:09:58.407Z,0.90
2019-01-14T13:12:27.379Z,0.90
2019-01-14T13:14:57.234Z,0.80
2019-01-14T13:17:26.194Z,0.93
2019-01-14T13:19:55.177Z,1.10
2019-01-14T13:22:24.159Z,0.70
2019-01-14T13:24:53.191Z,1.20
2019-01-14T13:27:22.595Z,0.87
2019-01-14T13:29:51.546Z,1.33
2019-01-14T13:32:20.506Z,1.20
2019-01-14T13:34:49.506Z,0.70
2019-01-14T13:37:18.834Z,0.70
2019-01-14T13:39:52.502Z,1.00
2019-01-14T13:42:18.473Z,1.10
2019-01-14T13:44:47.438Z,0.87
2019-01-14T13:47:16.398Z,1.30
2019-01-14T13:49:45.378Z,0.97
2019-01-14T13:52:18.158Z,2.53
2019-01-14T13:54:47.139Z,1.00
2019-01-14T13:57:17.102Z,1.03
2019-01-14T13:59:46.067Z,1.07
2019-01-14T14:02:15.042Z,0.90
2019-01-14T14:04:44.314Z,1.37
2019-01-14T14:07:13.351Z,1.17
2019-01-14T14:09:43.196Z,1.17
2019-01-14T14:12:12.186Z,0.77
2019-01-14T14:14:41.155Z,1.20
2019-01-14T14:17:10.117Z,0.90
2019-01-14T14:19:39.109Z,0.93
2019-01-14T14:22:11.811Z,0.97
2019-01-14T14:24:38.750Z,1.33
2019-01-14T14:27:07.722Z,1.00
2019-01-14T14:29:36.682Z,1.03
2019-01-14T14:32:05.675Z,1.10
2019-01-14T14:34:34.714Z,1.37
2019-01-14T14:37:03.790Z,8.50
2019-01-14T14:39:32.759Z,1.30
2019-01-14T14:42:01.734Z,0.97
2019-01-14T14:44:30.701Z,0.80
2019-01-14T14:46:59.686Z,0.80
2019-01-14T14:49:28.657Z,1.43
2019-01-14T14:51:57.626Z,0.90
2019-01-14T14:54:26.683Z,1.40
2019-01-14T14:56:55.652Z,1.00
2019-01-14T14:59:24.623Z,0.93
2019-01-14T15:01:53.606Z,1.20
2019-01-14T15:04:22.574Z,1.00
2019-01-14T15:06:51.754Z,1.00
2019-01-14T15:09:20.726Z,1.43
2019-01-14T15:11:49.702Z,1.23
2019-01-14T15:14:18.674Z,1.17
2019-01-14T15:16:47.640Z,1.23
2019-01-14T15:19:16.646Z,1.20
2019-01-14T15:21:45.610Z,1.17
2019-01-14T15:24:14.589Z,1.30
2019-01-14T15:26:43.547Z,1.03
2019-01-14T15:29:12.878Z,0.87
2019-01-14T15:31:41.898Z,1.17
2019-01-14T15:34:10.933Z,0.97
2019-01-14T15:36:39.891Z,1.40
2019-01-14T15:39:09.396Z,1.00
2019-01-14T15:41:38.374Z,1.10
2019-01-14T15:44:07.412Z,1.20
2019-01-14T15:46:36.397Z,1.57
2019-01-14T15:49:05.366Z,1.10
2019-01-14T15:51:35.069Z,1.20
2019-01-14T15:54:04.126Z,1.00
2019-01-14T15:56:33.099Z,0.97
2019-01-14T15:59:02.070Z,1.20
2019-01-14T16:01:31.050Z,1.00
2019-01-14T16:04:00.019Z,0.90
2019-01-14T16:06:28.988Z,1.60
2019-01-14T16:08:57.958Z,1.10
2019-01-14T16:11:26.926Z,0.90
2019-01-14T16:13:55.895Z,1.27
2019-01-14T16:16:24.898Z,0.90
2019-01-14T16:18:54.002Z,1.03
2019-01-14T16:21:22.966Z,0.80
2019-01-14T16:23:51.986Z,1.13
2019-01-14T16:26:20.922Z,0.90
2019-01-14T16:28:49.890Z,1.10
2019-01-14T16:31:18.890Z,1.13
2019-01-14T16:33:47.855Z,1.10
2019-01-14T16:36:16.833Z,0.90
2019-01-14T16:38:45.800Z,3.07
2019-01-14T16:41:14.766Z,1.43
2019-01-14T16:43:43.759Z,0.63
2019-01-14T16:46:12.724Z,1.23
2019-01-14T16:48:41.705Z,0.67
2019-01-14T16:51:11.228Z,1.20
2019-01-14T16:53:40.308Z,1.10
2019-01-14T16:56:09.301Z,1.00
2019-01-14T16:58:38.366Z,1.50
2019-01-14T17:01:07.338Z,1.10
2019-01-14T17:03:36.303Z,1.23
2019-01-14T17:06:05.283Z,0.90
2019-01-14T17:08:34.323Z,1.40
2019-01-14T17:11:03.287Z,1.30
2019-01-14T17:13:32.256Z,1.10
2019-01-14T17:16:01.266Z,0.93
2019-01-14T17:18:30.242Z,1.03
2019-01-14T17:20:59.230Z,0.90
2019-01-14T17:23:28.202Z,0.90
2019-01-14T17:25:57.174Z,1.00
2019-01-14T17:28:26.179Z,1.00
2019-01-14T17:30:55.138Z,1.37
2019-01-14T17:33:24.116Z,2.17
2019-01-14T17:35:53.078Z,1.27
2019-01-14T17:38:22.046Z,1.20
2019-01-14T17:40:51.022Z,1.33
2019-01-14T17:43:20.010Z,1.00
2019-01-14T17:45:48.979Z,1.60
2019-01-14T17:48:17.952Z,1.27
2019-01-14T17:50:46.994Z,1.00
2019-01-14T17:53:15.968Z,1.30
2019-01-14T17:55:44.930Z,1.03
2019-01-14T17:58:13.894Z,1.00
2019-01-14T18:00:42.903Z,1.67
2019-01-14T18:03:11.870Z,1.23
2019-01-14T18:05:40.846Z,1.33
2019-01-14T18:08:09.811Z,1.90
2019-01-14T18:10:40.105Z,1.43
2019-01-14T18:13:09.351Z,2.53
2019-01-14T18:15:38.314Z,2.07
2019-01-14T18:18:07.311Z,1.80
2019-01-14T18:20:37.230Z,1.73
2019-01-14T18:23:06.206Z,1.77
2019-01-14T18:25:35.177Z,1.63
2019-01-14T18:28:04.226Z,2.13
2019-01-14T18:30:33.196Z,1.70
2019-01-14T18:33:02.158Z,1.53
2019-01-14T18:35:31.162Z,1.97
2019-01-14T18:38:00.118Z,5.33
2019-01-14T18:40:33.763Z,1.43
2019-01-14T18:42:59.761Z,1.43
2019-01-14T18:45:28.722Z,1.93
2019-01-14T18:47:57.690Z,1.80
2019-01-14T18:50:26.690Z,2.23
2019-01-14T18:52:55.694Z,2.20
2019-01-14T18:55:24.695Z,1.77
2019-01-14T18:57:53.672Z,1.90
2019-01-14T19:00:22.816Z,1.63
2019-01-14T19:02:51.998Z,2.10
2019-01-14T19:05:21.043Z,1.90
2019-01-14T19:07:50.010Z,2.50
2019-01-14T19:10:19.960Z,2.20
2019-01-14T19:12:48.948Z,2.20
2019-01-14T19:15:18.440Z,2.03
2019-01-14T19:17:47.385Z,2.30
2019-01-14T19:20:17.433Z,2.53
2019-01-14T19:22:46.397Z,2.27
2019-01-14T19:25:15.371Z,2.13
2019-01-14T19:27:45.320Z,1.93
2019-01-14T19:30:15.815Z,2.17
2019-01-14T19:32:44.802Z,2.10
2019-01-14T19:35:13.834Z,2.33
2019-01-14T19:37:42.802Z,2.50
2019-01-14T19:40:13.046Z,1.93
2019-01-14T19:42:42.050Z,1.93
2019-01-14T19:45:12.231Z,2.33
2019-01-14T19:47:41.230Z,1.97
2019-01-14T19:50:11.738Z,1.77
2019-01-14T19:52:40.718Z,2.60
2019-01-14T19:55:09.746Z,2.00
2019-01-14T19:57:38.726Z,2.07
2019-01-14T20:00:09.291Z,2.30
2019-01-14T20:02:38.331Z,2.50
2019-01-14T20:05:07.370Z,2.27
2019-01-14T20:07:36.338Z,2.43
2019-01-14T20:10:06.906Z,2.37
2019-01-14T20:12:35.887Z,2.13
2019-01-14T20:15:06.398Z,2.43
2019-01-14T20:17:35.369Z,1.87
2019-01-14T20:20:05.934Z,2.17
2019-01-14T20:22:34.978Z,2.30
2019-01-14T20:25:05.422Z,1.97
2019-01-14T20:27:34.455Z,1.70
2019-01-14T20:30:05.002Z,1.40
2019-01-14T20:32:34.006Z,1.27
2019-01-14T20:35:03.295Z,1.37
2019-01-14T20:37:32.258Z,1.70
2019-01-14T20:40:01.224Z,1.67
2019-01-14T20:42:30.217Z,1.60
2019-01-14T20:44:59.196Z,1.30
2019-01-14T20:47:28.194Z,1.30
2019-01-14T20:49:57.158Z,1.57
2019-01-14T20:52:26.126Z,1.50
2019-01-14T20:54:55.102Z,1.43
2019-01-14T20:57:24.074Z,1.50
2019-01-14T20:59:53.034Z,1.53
2019-01-14T21:02:22.038Z,2.03
2019-01-14T21:04:51.011Z,2.23
2019-01-14T21:07:19.974Z,1.93
2019-01-14T21:09:48.952Z,1.70
2019-01-14T21:12:17.933Z,1.70
2019-01-14T21:14:46.914Z,1.50
2019-01-14T21:17:15.878Z,2.00
2019-01-14T21:19:44.856Z,1.83
2019-01-14T21:22:13.839Z,1.57
2019-01-14T21:24:42.802Z,1.77
2019-01-14T21:27:11.792Z,1.63
2019-01-14T21:29:40.757Z,1.77
2019-01-14T21:32:09.719Z,1.80
2019-01-14T21:34:38.730Z,1.60
2019-01-14T21:37:07.758Z,1.93
2019-01-14T21:39:36.711Z,1.70
2019-01-14T21:42:05.743Z,1.90
2019-01-14T21:44:34.775Z,1.80
2019-01-14T21:47:04.022Z,2.50
2019-01-14T21:49:32.996Z,1.73
2019-01-14T21:52:01.958Z,1.87
2019-01-14T21:54:30.965Z,1.93
2019-01-14T21:56:59.930Z,2.60
2019-01-14T21:59:28.894Z,2.20
2019-01-14T22:01:57.925Z,2.50
2019-01-14T22:04:27.004Z,1.97
2019-01-14T22:06:56.013Z,2.13
2019-01-14T22:09:25.039Z,2.07
2019-01-14T22:11:53.995Z,2.00
2019-01-14T22:14:22.955Z,2.10
2019-01-14T22:16:51.994Z,2.77
2019-01-14T22:19:21.047Z,2.73
2019-01-14T22:21:50.017Z,2.17
2019-01-14T22:24:19.034Z,1.90
2019-01-14T22:26:48.007Z,2.47
2019-01-14T22:29:16.990Z,2.07
2019-01-14T22:31:45.954Z,1.93
2019-01-14T22:34:14.920Z,2.00
2019-01-14T22:36:43.890Z,2.00
2019-01-14T22:39:12.860Z,2.17
2019-01-14T22:41:45.652Z,2.73
2019-01-14T22:44:12.510Z,2.07
2019-01-14T22:46:41.481Z,2.10
2019-01-14T22:49:10.457Z,2.17
2019-01-14T22:51:42.994Z,2.30
2019-01-14T22:54:11.947Z,2.77
2019-01-14T22:56:40.914Z,2.20
2019-01-14T22:59:10.010Z,2.43
2019-01-14T23:01:39.046Z,2.50
2019-01-14T23:04:08.026Z,2.60
2019-01-14T23:06:37.010Z,2.67
2019-01-14T23:09:06.632Z,2.80
2019-01-14T23:11:35.626Z,2.97
2019-01-14T23:14:05.215Z,2.90
2019-01-14T23:16:34.243Z,3.07
2019-01-14T23:19:03.290Z,2.67
2019-01-14T23:21:32.262Z,2.83
2019-01-14T23:24:01.266Z,3.10
2019-01-14T23:26:30.232Z,2.83
2019-01-14T23:28:59.209Z,2.90
2019-01-14T23:31:28.189Z,3.40
2019-01-14T23:33:57.164Z,2.90
2019-01-14T23:36:26.126Z,2.53
2019-01-14T23:38:55.142Z,2.90
2019-01-14T23:41:24.110Z,3.63
2019-01-14T23:43:53.100Z,3.00
2019-01-14T23:46:22.059Z,2.83
2019-01-14T23:48:51.050Z,3.50
2019-01-14T23:51:20.567Z,3.17
2019-01-14T23:53:49.837Z,2.80
2019-01-14T23:56:18.779Z,3.03
2019-01-14T23:58:47.830Z,3.20
